sensor_id;sensor_type;location;lat;lon;timestamp;pressure;altitude;pressure_sealevel;temperature
79148;BMP280;68562;51.600;6.524;2023-04-15T00:00:00;1006.9;;;12.3
79148;BMP280;68562;51.600;6.524;2023-04-15T00:05:00;1006.9;;;12.3
79148;BMP280;68562;51.600;6.524;2023-04-15T00:10:00;1006.8;;;12.2
79148;BMP280;68562;51.600;6.524;2023-04-15T00:15:00;1006.8;;;12.2
79148;BMP280;68562;51.600;6.524;2023-04-15T00:20:00;1006.8;;;12.2
79148;BMP280;68562;51.600;6.524;2023-04-15T00:25:00;1006.8;;;12.1
79148;BMP280;68562;51.600;6.524;2023-04-15T00:30:00;1006.9;;;12.1
79148;BMP280;68562;51.600;6.524;2023-04-15T00:35:00;1006.9;;;12.1
79148;BMP280;68562;51.600;6.524;2023-04-15T00:40:00;1006.9;;;12.0
79148;BMP280;68562;51.600;6.524;2023-04-15T00:45:00;1006.9;;;11.9
79148;BMP280;68562;51.600;6.524;2023-04-15T00:50:00;1006.9;;;11.9
79148;BMP280;68562;51.600;6.524;2023-04-15T00:55:00;1006.9;;;11.8
79148;BMP280;68562;51.600;6.524;2023-04-15T01:00:01;1006.9;;;11.8
79148;BMP280;68562;51.600;6.524;2023-04-15T01:05:00;1006.9;;;11.8
79148;BMP280;68562;51.600;6.524;2023-04-15T01:10:01;1006.9;;;11.8
79148;BMP280;68562;51.600;6.524;2023-04-15T01:15:00;1006.9;;;11.7
79148;BMP280;68562;51.600;6.524;2023-04-15T01:20:00;1006.9;;;11.7
79148;BMP280;68562;51.600;6.524;2023-04-15T01:25:04;1006.9;;;11.7
79148;BMP280;68562;51.600;6.524;2023-04-15T01:30:00;1006.9;;;11.7
79148;BMP280;68562;51.600;6.524;2023-04-15T01:35:00;1006.9;;;11.6
79148;BMP280;68562;51.600;6.524;2023-04-15T01:40:00;1006.8;;;11.6
79148;BMP280;68562;51.600;6.524;2023-04-15T01:45:00;1006.9;;;11.6
79148;BMP280;68562;51.600;6.524;2023-04-15T01:50:00;1006.9;;;11.6
79148;BMP280;68562;51.600;6.524;2023-04-15T01:55:00;1006.9;;;11.5
79148;BMP280;68562;51.600;6.524;2023-04-15T02:00:00;1006.9;;;11.5
79148;BMP280;68562;51.600;6.524;2023-04-15T02:05:00;1006.9;;;11.5
79148;BMP280;68562;51.600;6.524;2023-04-15T02:10:00;1006.9;;;11.4
79148;BMP280;68562;51.600;6.524;2023-04-15T02:15:00;1007.0;;;11.3
79148;BMP280;68562;51.600;6.524;2023-04-15T02:20:00;1007.0;;;11.2
79148;BMP280;68562;51.600;6.524;2023-04-15T02:25:00;1007.0;;;11.2
79148;BMP280;68562;51.600;6.524;2023-04-15T02:30:00;1007.1;;;11.2
79148;BMP280;68562;51.600;6.524;2023-04-15T02:35:02;1007.1;;;11.1
79148;BMP280;68562;51.600;6.524;2023-04-15T02:40:00;1007.2;;;11.1
79148;BMP280;68562;51.600;6.524;2023-04-15T02:45:00;1007.2;;;11.0
79148;BMP280;68562;51.600;6.524;2023-04-15T02:50:01;1007.3;;;10.9
79148;BMP280;68562;51.600;6.524;2023-04-15T02:55:00;1007.3;;;10.8
79148;BMP280;68562;51.600;6.524;2023-04-15T03:00:00;1007.3;;;10.7
79148;BMP280;68562;51.600;6.524;2023-04-15T03:05:00;1007.4;;;10.7
79148;BMP280;68562;51.600;6.524;2023-04-15T03:10:00;1007.4;;;10.6
79148;BMP280;68562;51.600;6.524;2023-04-15T03:15:00;1007.4;;;10.6
79148;BMP280;68562;51.600;6.524;2023-04-15T03:20:00;1007.5;;;10.5
79148;BMP280;68562;51.600;6.524;2023-04-15T03:25:00;1007.5;;;10.5
79148;BMP280;68562;51.600;6.524;2023-04-15T03:30:00;1007.5;;;10.5
79148;BMP280;68562;51.600;6.524;2023-04-15T03:35:00;1007.6;;;10.4
79148;BMP280;68562;51.600;6.524;2023-04-15T03:40:00;1007.5;;;10.4
79148;BMP280;68562;51.600;6.524;2023-04-15T03:45:00;1007.6;;;10.4
79148;BMP280;68562;51.600;6.524;2023-04-15T03:50:00;1007.7;;;10.4
79148;BMP280;68562;51.600;6.524;2023-04-15T03:55:00;1007.7;;;10.4
79148;BMP280;68562;51.600;6.524;2023-04-15T04:00:00;1007.8;;;10.4
79148;BMP280;68562;51.600;6.524;2023-04-15T04:05:00;1007.8;;;10.4
79148;BMP280;68562;51.600;6.524;2023-04-15T04:10:01;1007.8;;;10.3
79148;BMP280;68562;51.600;6.524;2023-04-15T04:15:00;1007.9;;;10.3
79148;BMP280;68562;51.600;6.524;2023-04-15T04:20:00;1007.9;;;10.3
79148;BMP280;68562;51.600;6.524;2023-04-15T04:25:00;1007.9;;;10.3
79148;BMP280;68562;51.600;6.524;2023-04-15T04:30:00;1008.0;;;10.3
79148;BMP280;68562;51.600;6.524;2023-04-15T04:35:00;1008.1;;;10.3
79148;BMP280;68562;51.600;6.524;2023-04-15T04:40:00;1008.1;;;10.2
79148;BMP280;68562;51.600;6.524;2023-04-15T04:45:00;1008.1;;;10.2
79148;BMP280;68562;51.600;6.524;2023-04-15T04:50:00;1008.2;;;10.2
79148;BMP280;68562;51.600;6.524;2023-04-15T04:55:00;1008.2;;;10.2
79148;BMP280;68562;51.600;6.524;2023-04-15T05:00:00;1008.2;;;10.1
79148;BMP280;68562;51.600;6.524;2023-04-15T05:05:00;1008.4;;;10.1
79148;BMP280;68562;51.600;6.524;2023-04-15T05:10:00;1008.3;;;10.1
79148;BMP280;68562;51.600;6.524;2023-04-15T05:15:00;1008.4;;;10.1
79148;BMP280;68562;51.600;6.524;2023-04-15T05:20:00;1008.5;;;10.2
79148;BMP280;68562;51.600;6.524;2023-04-15T05:25:00;1008.4;;;10.3
79148;BMP280;68562;51.600;6.524;2023-04-15T05:30:00;1008.5;;;10.5
79148;BMP280;68562;51.600;6.524;2023-04-15T05:35:00;1008.6;;;10.6
79148;BMP280;68562;51.600;6.524;2023-04-15T05:40:00;1008.7;;;10.8
79148;BMP280;68562;51.600;6.524;2023-04-15T05:45:00;1008.8;;;10.9
79148;BMP280;68562;51.600;6.524;2023-04-15T05:50:00;1008.9;;;11.0
79148;BMP280;68562;51.600;6.524;2023-04-15T05:55:00;1009.0;;;11.1
79148;BMP280;68562;51.600;6.524;2023-04-15T06:00:00;1009.1;;;11.3
79148;BMP280;68562;51.600;6.524;2023-04-15T06:05:00;1009.2;;;11.4
79148;BMP280;68562;51.600;6.524;2023-04-15T06:10:00;1009.2;;;11.6
79148;BMP280;68562;51.600;6.524;2023-04-15T06:15:00;1009.2;;;11.7
79148;BMP280;68562;51.600;6.524;2023-04-15T06:20:00;1009.3;;;11.9
79148;BMP280;68562;51.600;6.524;2023-04-15T06:25:00;1009.4;;;12.1
79148;BMP280;68562;51.600;6.524;2023-04-15T06:30:00;1009.4;;;12.4
79148;BMP280;68562;51.600;6.524;2023-04-15T06:35:00;1009.5;;;12.6
79148;BMP280;68562;51.600;6.524;2023-04-15T06:40:00;1009.5;;;12.8
79148;BMP280;68562;51.600;6.524;2023-04-15T06:45:00;1009.5;;;13.1
79148;BMP280;68562;51.600;6.524;2023-04-15T06:50:00;1009.6;;;13.4
79148;BMP280;68562;51.600;6.524;2023-04-15T06:55:00;1009.7;;;13.6
79148;BMP280;68562;51.600;6.524;2023-04-15T07:00:00;1009.7;;;13.9
79148;BMP280;68562;51.600;6.524;2023-04-15T07:05:00;1009.8;;;14.2
79148;BMP280;68562;51.600;6.524;2023-04-15T07:10:00;1009.8;;;14.6
79148;BMP280;68562;51.600;6.524;2023-04-15T07:15:00;1009.9;;;14.9
79148;BMP280;68562;51.600;6.524;2023-04-15T07:20:00;1010.0;;;15.3
79148;BMP280;68562;51.600;6.524;2023-04-15T07:25:00;1010.1;;;15.6
79148;BMP280;68562;51.600;6.524;2023-04-15T07:30:01;1010.1;;;15.9
79148;BMP280;68562;51.600;6.524;2023-04-15T07:35:00;1010.1;;;16.3
79148;BMP280;68562;51.600;6.524;2023-04-15T07:40:00;1010.2;;;16.9
79148;BMP280;68562;51.600;6.524;2023-04-15T07:45:00;1010.2;;;17.3
79148;BMP280;68562;51.600;6.524;2023-04-15T07:50:00;1010.3;;;17.8
79148;BMP280;68562;51.600;6.524;2023-04-15T07:55:00;1010.3;;;18.4
79148;BMP280;68562;51.600;6.524;2023-04-15T08:00:01;1010.3;;;18.9
79148;BMP280;68562;51.600;6.524;2023-04-15T08:05:00;1010.3;;;19.3
79148;BMP280;68562;51.600;6.524;2023-04-15T08:10:00;1010.4;;;19.5
79148;BMP280;68562;51.600;6.524;2023-04-15T08:15:00;1010.4;;;19.7
79148;BMP280;68562;51.600;6.524;2023-04-15T08:20:00;1010.5;;;19.9
79148;BMP280;68562;51.600;6.524;2023-04-15T08:25:00;1010.5;;;20.0
79148;BMP280;68562;51.600;6.524;2023-04-15T08:30:00;1010.5;;;20.1
79148;BMP280;68562;51.600;6.524;2023-04-15T08:35:00;1010.6;;;20.2
79148;BMP280;68562;51.600;6.524;2023-04-15T08:40:00;1010.7;;;20.3
79148;BMP280;68562;51.600;6.524;2023-04-15T08:45:03;1010.7;;;20.6
79148;BMP280;68562;51.600;6.524;2023-04-15T08:50:02;1010.7;;;21.1
79148;BMP280;68562;51.600;6.524;2023-04-15T08:55:01;1010.7;;;21.8
79148;BMP280;68562;51.600;6.524;2023-04-15T09:00:01;1010.8;;;22.5
79148;BMP280;68562;51.600;6.524;2023-04-15T09:05:00;1010.8;;;23.1
79148;BMP280;68562;51.600;6.524;2023-04-15T09:10:00;1010.9;;;23.7
79148;BMP280;68562;51.600;6.524;2023-04-15T09:15:00;1010.8;;;24.3
79148;BMP280;68562;51.600;6.524;2023-04-15T09:20:09;1010.9;;;24.7
79148;BMP280;68562;51.600;6.524;2023-04-15T09:25:00;1010.9;;;25.1
79148;BMP280;68562;51.600;6.524;2023-04-15T09:30:00;1011.0;;;25.4
79148;BMP280;68562;51.600;6.524;2023-04-15T09:35:10;1011.1;;;25.6
79148;BMP280;68562;51.600;6.524;2023-04-15T09:40:00;1011.1;;;26.1
79148;BMP280;68562;51.600;6.524;2023-04-15T09:45:07;1011.2;;;26.7
79148;BMP280;68562;51.600;6.524;2023-04-15T09:50:00;1011.2;;;27.3
79148;BMP280;68562;51.600;6.524;2023-04-15T09:55:00;1011.3;;;27.8
79148;BMP280;68562;51.600;6.524;2023-04-15T10:00:00;1011.4;;;27.8
79148;BMP280;68562;51.600;6.524;2023-04-15T10:05:00;1011.4;;;27.5
79148;BMP280;68562;51.600;6.524;2023-04-15T10:10:00;1011.5;;;26.9
79148;BMP280;68562;51.600;6.524;2023-04-15T10:15:03;1011.4;;;26.4
79148;BMP280;68562;51.600;6.524;2023-04-15T10:20:01;1011.5;;;26.1
79148;BMP280;68562;51.600;6.524;2023-04-15T10:25:01;1011.5;;;26.2
79148;BMP280;68562;51.600;6.524;2023-04-15T10:30:00;1011.6;;;26.0
79148;BMP280;68562;51.600;6.524;2023-04-15T10:35:00;1011.6;;;25.6
79148;BMP280;68562;51.600;6.524;2023-04-15T10:40:00;1011.7;;;25.6
79148;BMP280;68562;51.600;6.524;2023-04-15T10:45:00;1011.7;;;26.0
79148;BMP280;68562;51.600;6.524;2023-04-15T10:50:01;1011.7;;;25.9
79148;BMP280;68562;51.600;6.524;2023-04-15T10:55:02;1011.7;;;25.6
79148;BMP280;68562;51.600;6.524;2023-04-15T11:00:08;1011.8;;;25.4
79148;BMP280;68562;51.600;6.524;2023-04-15T11:05:00;1011.8;;;25.2
79148;BMP280;68562;51.600;6.524;2023-04-15T11:10:03;0;;;0
79148;BMP280;68562;51.600;6.524;2023-04-15T11:20:00;1012.0;;;24.6
79148;BMP280;68562;51.600;6.524;2023-04-15T11:25:00;1012.1;;;24.3
79148;BMP280;68562;51.600;6.524;2023-04-15T11:30:00;1012.1;;;24.0
79148;BMP280;68562;51.600;6.524;2023-04-15T11:35:00;1012.2;;;23.5
79148;BMP280;68562;51.600;6.524;2023-04-15T11:40:01;1012.2;;;23.0
79148;BMP280;68562;51.600;6.524;2023-04-15T11:45:05;1012.3;;;22.6
79148;BMP280;68562;51.600;6.524;2023-04-15T11:50:13;1012.4;;;22.4
79148;BMP280;68562;51.600;6.524;2023-04-15T11:55:02;1012.3;;;22.4
79148;BMP280;68562;51.600;6.524;2023-04-15T12:00:00;1012.4;;;23.2
79148;BMP280;68562;51.600;6.524;2023-04-15T12:05:03;1012.4;;;23.8
79148;BMP280;68562;51.600;6.524;2023-04-15T12:10:01;1012.4;;;23.7
79148;BMP280;68562;51.600;6.524;2023-04-15T12:15:00;1012.5;;;23.3
79148;BMP280;68562;51.600;6.524;2023-04-15T12:20:00;1012.5;;;22.8
79148;BMP280;68562;51.600;6.524;2023-04-15T12:25:00;1012.6;;;22.4
79148;BMP280;68562;51.600;6.524;2023-04-15T12:30:02;1012.6;;;22.4
79148;BMP280;68562;51.600;6.524;2023-04-15T12:35:00;1012.7;;;22.4
79148;BMP280;68562;51.600;6.524;2023-04-15T12:40:00;1012.8;;;22.5
79148;BMP280;68562;51.600;6.524;2023-04-15T12:45:00;1012.8;;;22.9
79148;BMP280;68562;51.600;6.524;2023-04-15T12:50:00;1012.8;;;23.4
79148;BMP280;68562;51.600;6.524;2023-04-15T12:55:00;1012.9;;;23.6
79148;BMP280;68562;51.600;6.524;2023-04-15T13:00:00;1013.0;;;23.6
79148;BMP280;68562;51.600;6.524;2023-04-15T13:05:00;1013.0;;;23.2
79148;BMP280;68562;51.600;6.524;2023-04-15T13:10:00;1013.0;;;22.8
79148;BMP280;68562;51.600;6.524;2023-04-15T13:15:00;1013.1;;;22.3
79148;BMP280;68562;51.600;6.524;2023-04-15T13:20:00;1013.2;;;22.0
79148;BMP280;68562;51.600;6.524;2023-04-15T13:25:00;1013.3;;;21.5
79148;BMP280;68562;51.600;6.524;2023-04-15T13:30:00;1013.4;;;21.0
79148;BMP280;68562;51.600;6.524;2023-04-15T13:35:00;1013.5;;;20.5
79148;BMP280;68562;51.600;6.524;2023-04-15T13:40:00;1013.6;;;20.2
79148;BMP280;68562;51.600;6.524;2023-04-15T13:45:00;1013.6;;;19.8
79148;BMP280;68562;51.600;6.524;2023-04-15T13:50:00;1013.7;;;19.6
79148;BMP280;68562;51.600;6.524;2023-04-15T13:55:00;1013.7;;;19.5
79148;BMP280;68562;51.600;6.524;2023-04-15T14:00:00;1013.8;;;19.4
79148;BMP280;68562;51.600;6.524;2023-04-15T14:05:00;1013.9;;;19.3
79148;BMP280;68562;51.600;6.524;2023-04-15T14:10:00;1013.9;;;19.2
79148;BMP280;68562;51.600;6.524;2023-04-15T14:15:00;1014.0;;;19.1
79148;BMP280;68562;51.600;6.524;2023-04-15T14:20:00;1014.0;;;19.2
79148;BMP280;68562;51.600;6.524;2023-04-15T14:25:00;1014.1;;;19.3
79148;BMP280;68562;51.600;6.524;2023-04-15T14:30:00;1014.1;;;19.4
79148;BMP280;68562;51.600;6.524;2023-04-15T14:35:00;1014.1;;;19.4
79148;BMP280;68562;51.600;6.524;2023-04-15T14:40:00;1014.1;;;19.4
79148;BMP280;68562;51.600;6.524;2023-04-15T14:45:00;1014.2;;;19.5
79148;BMP280;68562;51.600;6.524;2023-04-15T14:50:00;1014.3;;;19.5
79148;BMP280;68562;51.600;6.524;2023-04-15T14:55:00;1014.4;;;19.4
79148;BMP280;68562;51.600;6.524;2023-04-15T15:00:00;1014.5;;;19.3
79148;BMP280;68562;51.600;6.524;2023-04-15T15:05:00;1014.4;;;19.1
79148;BMP280;68562;51.600;6.524;2023-04-15T15:10:00;1014.5;;;19.0
79148;BMP280;68562;51.600;6.524;2023-04-15T15:15:01;1014.6;;;18.9
79148;BMP280;68562;51.600;6.524;2023-04-15T15:20:00;1014.6;;;18.8
79148;BMP280;68562;51.600;6.524;2023-04-15T15:25:00;1014.6;;;18.7
79148;BMP280;68562;51.600;6.524;2023-04-15T15:30:00;1014.7;;;18.6
79148;BMP280;68562;51.600;6.524;2023-04-15T15:35:00;1014.8;;;18.6
79148;BMP280;68562;51.600;6.524;2023-04-15T15:40:00;1014.8;;;18.4
79148;BMP280;68562;51.600;6.524;2023-04-15T15:45:02;1014.9;;;18.3
79148;BMP280;68562;51.600;6.524;2023-04-15T15:50:00;1014.9;;;18.2
79148;BMP280;68562;51.600;6.524;2023-04-15T15:55:00;1015.0;;;18.1
79148;BMP280;68562;51.600;6.524;2023-04-15T16:00:00;1015.0;;;18.0
79148;BMP280;68562;51.600;6.524;2023-04-15T16:05:00;1015.1;;;18.0
79148;BMP280;68562;51.600;6.524;2023-04-15T16:10:00;1015.1;;;17.8
79148;BMP280;68562;51.600;6.524;2023-04-15T16:15:00;1015.2;;;17.6
79148;BMP280;68562;51.600;6.524;2023-04-15T16:20:00;1015.3;;;17.4
79148;BMP280;68562;51.600;6.524;2023-04-15T16:25:00;1015.3;;;17.3
79148;BMP280;68562;51.600;6.524;2023-04-15T16:30:00;1015.4;;;17.2
79148;BMP280;68562;51.600;6.524;2023-04-15T16:35:00;1015.5;;;17.2
79148;BMP280;68562;51.600;6.524;2023-04-15T16:40:00;1015.5;;;17.2
79148;BMP280;68562;51.600;6.524;2023-04-15T16:45:00;1015.5;;;17.1
79148;BMP280;68562;51.600;6.524;2023-04-15T16:50:00;1015.6;;;17.0
79148;BMP280;68562;51.600;6.524;2023-04-15T16:55:00;1015.6;;;16.9
79148;BMP280;68562;51.600;6.524;2023-04-15T17:00:00;1015.6;;;16.8
79148;BMP280;68562;51.600;6.524;2023-04-15T17:05:00;1015.7;;;16.7
79148;BMP280;68562;51.600;6.524;2023-04-15T17:10:00;1015.7;;;16.5
79148;BMP280;68562;51.600;6.524;2023-04-15T17:15:00;1015.8;;;16.5
79148;BMP280;68562;51.600;6.524;2023-04-15T17:20:00;1015.9;;;16.3
79148;BMP280;68562;51.600;6.524;2023-04-15T17:25:00;1016.0;;;16.1
79148;BMP280;68562;51.600;6.524;2023-04-15T17:30:00;1016.0;;;16.0
79148;BMP280;68562;51.600;6.524;2023-04-15T17:35:00;1016.0;;;15.9
79148;BMP280;68562;51.600;6.524;2023-04-15T17:40:00;1016.1;;;15.7
79148;BMP280;68562;51.600;6.524;2023-04-15T17:45:00;1016.1;;;15.6
79148;BMP280;68562;51.600;6.524;2023-04-15T17:50:00;1016.2;;;15.6
79148;BMP280;68562;51.600;6.524;2023-04-15T17:55:00;1016.3;;;15.5
79148;BMP280;68562;51.600;6.524;2023-04-15T18:00:00;1016.4;;;15.5
79148;BMP280;68562;51.600;6.524;2023-04-15T18:05:00;1016.4;;;15.4
79148;BMP280;68562;51.600;6.524;2023-04-15T18:10:00;1016.5;;;15.3
79148;BMP280;68562;51.600;6.524;2023-04-15T18:15:00;1016.6;;;15.3
79148;BMP280;68562;51.600;6.524;2023-04-15T18:20:00;1016.6;;;15.2
79148;BMP280;68562;51.600;6.524;2023-04-15T18:25:00;1016.7;;;15.2
79148;BMP280;68562;51.600;6.524;2023-04-15T18:30:00;1016.7;;;15.1
79148;BMP280;68562;51.600;6.524;2023-04-15T18:35:00;1016.8;;;15.1
79148;BMP280;68562;51.600;6.524;2023-04-15T18:40:00;1016.9;;;15.0
79148;BMP280;68562;51.600;6.524;2023-04-15T18:45:00;1017.0;;;15.0
79148;BMP280;68562;51.600;6.524;2023-04-15T18:50:00;1017.1;;;15.0
79148;BMP280;68562;51.600;6.524;2023-04-15T18:55:00;1017.1;;;14.9
79148;BMP280;68562;51.600;6.524;2023-04-15T19:00:00;1017.2;;;14.8
79148;BMP280;68562;51.600;6.524;2023-04-15T19:05:00;1017.3;;;14.8
79148;BMP280;68562;51.600;6.524;2023-04-15T19:10:01;1017.4;;;14.7
79148;BMP280;68562;51.600;6.524;2023-04-15T19:15:00;1017.4;;;14.6
79148;BMP280;68562;51.600;6.524;2023-04-15T19:20:00;1017.5;;;14.6
79148;BMP280;68562;51.600;6.524;2023-04-15T19:25:00;1017.5;;;14.5
79148;BMP280;68562;51.600;6.524;2023-04-15T19:30:00;1017.6;;;14.5
79148;BMP280;68562;51.600;6.524;2023-04-15T19:35:00;1017.6;;;14.5
79148;BMP280;68562;51.600;6.524;2023-04-15T19:40:00;1017.6;;;14.4
79148;BMP280;68562;51.600;6.524;2023-04-15T19:45:00;1017.7;;;14.4
79148;BMP280;68562;51.600;6.524;2023-04-15T19:50:00;1017.7;;;14.5
79148;BMP280;68562;51.600;6.524;2023-04-15T19:55:00;1017.7;;;14.5
79148;BMP280;68562;51.600;6.524;2023-04-15T20:00:00;1017.8;;;14.5
79148;BMP280;68562;51.600;6.524;2023-04-15T20:05:00;1017.9;;;14.5
79148;BMP280;68562;51.600;6.524;2023-04-15T20:10:00;1017.8;;;14.5
79148;BMP280;68562;51.600;6.524;2023-04-15T20:15:00;1017.8;;;14.4
79148;BMP280;68562;51.600;6.524;2023-04-15T20:20:00;1017.9;;;14.5
79148;BMP280;68562;51.600;6.524;2023-04-15T20:25:01;1017.9;;;14.5
79148;BMP280;68562;51.600;6.524;2023-04-15T20:30:00;1018.0;;;14.6
79148;BMP280;68562;51.600;6.524;2023-04-15T20:35:00;1018.0;;;14.5
79148;BMP280;68562;51.600;6.524;2023-04-15T20:40:00;1018.0;;;14.6
79148;BMP280;68562;51.600;6.524;2023-04-15T20:45:00;1018.0;;;14.5
79148;BMP280;68562;51.600;6.524;2023-04-15T20:50:00;1018.0;;;14.6
79148;BMP280;68562;51.600;6.524;2023-04-15T20:55:00;1018.1;;;14.6
79148;BMP280;68562;51.600;6.524;2023-04-15T21:00:00;1018.1;;;14.7
79148;BMP280;68562;51.600;6.524;2023-04-15T21:05:00;1018.1;;;14.6
79148;BMP280;68562;51.600;6.524;2023-04-15T21:10:00;1018.1;;;14.7
79148;BMP280;68562;51.600;6.524;2023-04-15T21:15:00;1018.2;;;14.6
79148;BMP280;68562;51.600;6.524;2023-04-15T21:20:00;1018.2;;;14.6
79148;BMP280;68562;51.600;6.524;2023-04-15T21:25:00;1018.3;;;14.6
79148;BMP280;68562;51.600;6.524;2023-04-15T21:30:00;1018.3;;;14.7
79148;BMP280;68562;51.600;6.524;2023-04-15T21:35:00;1018.3;;;14.7
79148;BMP280;68562;51.600;6.524;2023-04-15T21:40:00;1018.5;;;14.6
79148;BMP280;68562;51.600;6.524;2023-04-15T21:45:00;1018.5;;;14.6
79148;BMP280;68562;51.600;6.524;2023-04-15T21:50:00;1018.5;;;14.5
79148;BMP280;68562;51.600;6.524;2023-04-15T21:55:00;1018.6;;;14.4
79148;BMP280;68562;51.600;6.524;2023-04-15T22:00:00;1018.7;;;14.4
79148;BMP280;68562;51.600;6.524;2023-04-15T22:05:00;1018.7;;;14.4
79148;BMP280;68562;51.600;6.524;2023-04-15T22:10:00;1018.7;;;14.4
79148;BMP280;68562;51.600;6.524;2023-04-15T22:15:00;1018.7;;;14.4
79148;BMP280;68562;51.600;6.524;2023-04-15T22:20:00;1018.7;;;14.3
79148;BMP280;68562;51.600;6.524;2023-04-15T22:25:00;1018.8;;;14.3
79148;BMP280;68562;51.600;6.524;2023-04-15T22:30:00;1018.8;;;14.3
79148;BMP280;68562;51.600;6.524;2023-04-15T22:35:00;1018.9;;;14.3
79148;BMP280;68562;51.600;6.524;2023-04-15T22:40:00;1018.8;;;14.3
79148;BMP280;68562;51.600;6.524;2023-04-15T22:45:00;1018.8;;;14.3
79148;BMP280;68562;51.600;6.524;2023-04-15T22:50:00;1018.9;;;14.3
79148;BMP280;68562;51.600;6.524;2023-04-15T22:55:00;1018.9;;;14.3
79148;BMP280;68562;51.600;6.524;2023-04-15T23:00:00;1019.0;;;14.2
79148;BMP280;68562;51.600;6.524;2023-04-15T23:05:00;1019.0;;;14.3
79148;BMP280;68562;51.600;6.524;2023-04-15T23:10:00;1019.1;;;14.2
79148;BMP280;68562;51.600;6.524;2023-04-15T23:15:00;1019.1;;;14.3
79148;BMP280;68562;51.600;6.524;2023-04-15T23:20:00;1019.1;;;14.2
79148;BMP280;68562;51.600;6.524;2023-04-15T23:25:00;1019.1;;;14.3
79148;BMP280;68562;51.600;6.524;2023-04-15T23:30:00;1019.1;;;14.2
79148;BMP280;68562;51.600;6.524;2023-04-15T23:35:00;1019.2;;;14.3
79148;BMP280;68562;51.600;6.524;2023-04-15T23:40:00;1019.2;;;14.3
79148;BMP280;68562;51.600;6.524;2023-04-15T23:45:00;1019.2;;;14.3
79148;BMP280;68562;51.600;6.524;2023-04-15T23:50:00;1019.2;;;14.3
79148;BMP280;68562;51.600;6.524;2023-04-15T23:55:00;1019.2;;;14.3
